sensor_id;sensor_type;location;lat;lon;timestamp;temperature;humidity
6443;DHT22;3254;47.372;8.512;2023-11-21T00:00:13;8.60;1.00
6443;DHT22;3254;47.372;8.512;2023-11-21T00:02:39;8.70;1.00
6443;DHT22;3254;47.372;8.512;2023-11-21T00:05:11;8.70;1.00
6443;DHT22;3254;47.372;8.512;2023-11-21T00:07:38;8.70;1.00
6443;DHT22;3254;47.372;8.512;2023-11-21T00:10:04;8.60;1.00
6443;DHT22;3254;47.372;8.512;2023-11-21T00:12:37;8.60;1.00
6443;DHT22;3254;47.372;8.512;2023-11-21T00:15:03;8.40;1.00
6443;DHT22;3254;47.372;8.512;2023-11-21T00:17:31;8.30;1.00
6443;DHT22;3254;47.372;8.512;2023-11-21T00:19:56;8.20;1.00
6443;DHT22;3254;47.372;8.512;2023-11-21T00:22:22;8.20;1.00
6443;DHT22;3254;47.372;8.512;2023-11-21T00:24:47;8.20;1.00
6443;DHT22;3254;47.372;8.512;2023-11-21T00:27:13;8.30;1.00
6443;DHT22;3254;47.372;8.512;2023-11-21T00:29:39;8.40;1.00
6443;DHT22;3254;47.372;8.512;2023-11-21T00:32:05;8.40;1.00
6443;DHT22;3254;47.372;8.512;2023-11-21T00:34:32;8.60;1.00
6443;DHT22;3254;47.372;8.512;2023-11-21T00:36:57;8.60;1.00
6443;DHT22;3254;47.372;8.512;2023-11-21T00:39:23;8.60;1.00
6443;DHT22;3254;47.372;8.512;2023-11-21T00:41:49;8.70;1.00
6443;DHT22;3254;47.372;8.512;2023-11-21T00:44:15;8.80;1.00
6443;DHT22;3254;47.372;8.512;2023-11-21T00:46:41;8.70;1.00
6443;DHT22;3254;47.372;8.512;2023-11-21T00:49:07;8.60;1.00
6443;DHT22;3254;47.372;8.512;2023-11-21T00:51:33;8.60;1.00
6443;DHT22;3254;47.372;8.512;2023-11-21T00:53:59;8.60;1.00
6443;DHT22;3254;47.372;8.512;2023-11-21T00:56:24;8.80;1.00
6443;DHT22;3254;47.372;8.512;2023-11-21T00:58:50;8.80;1.00
6443;DHT22;3254;47.372;8.512;2023-11-21T01:01:18;8.70;1.00
6443;DHT22;3254;47.372;8.512;2023-11-21T01:03:46;8.70;1.00
6443;DHT22;3254;47.372;8.512;2023-11-21T01:06:11;8.80;1.00
6443;DHT22;3254;47.372;8.512;2023-11-21T01:08:37;8.70;1.00
6443;DHT22;3254;47.372;8.512;2023-11-21T01:11:03;8.80;1.00
6443;DHT22;3254;47.372;8.512;2023-11-21T01:13:28;8.90;1.00
6443;DHT22;3254;47.372;8.512;2023-11-21T01:15:55;8.90;1.00
6443;DHT22;3254;47.372;8.512;2023-11-21T01:18:21;8.90;1.00
6443;DHT22;3254;47.372;8.512;2023-11-21T01:20:46;8.90;1.00
6443;DHT22;3254;47.372;8.512;2023-11-21T01:23:13;9.00;1.00
6443;DHT22;3254;47.372;8.512;2023-11-21T01:25:39;8.90;1.00
6443;DHT22;3254;47.372;8.512;2023-11-21T01:28:04;8.90;1.00
6443;DHT22;3254;47.372;8.512;2023-11-21T01:30:30;8.90;1.00
6443;DHT22;3254;47.372;8.512;2023-11-21T01:32:56;9.00;1.00
6443;DHT22;3254;47.372;8.512;2023-11-21T01:35:22;8.90;1.00
6443;DHT22;3254;47.372;8.512;2023-11-21T01:37:47;8.90;1.00
6443;DHT22;3254;47.372;8.512;2023-11-21T01:40:13;8.90;1.00
6443;DHT22;3254;47.372;8.512;2023-11-21T01:42:40;8.80;1.00
6443;DHT22;3254;47.372;8.512;2023-11-21T01:45:06;8.80;1.00
6443;DHT22;3254;47.372;8.512;2023-11-21T01:47:33;8.80;1.00
6443;DHT22;3254;47.372;8.512;2023-11-21T01:49:59;8.70;1.00
6443;DHT22;3254;47.372;8.512;2023-11-21T01:52:26;8.70;1.00
6443;DHT22;3254;47.372;8.512;2023-11-21T01:54:52;8.70;1.00
6443;DHT22;3254;47.372;8.512;2023-11-21T01:57:20;8.70;1.00
6443;DHT22;3254;47.372;8.512;2023-11-21T01:59:48;8.70;1.00
6443;DHT22;3254;47.372;8.512;2023-11-21T02:02:14;8.70;1.00
6443;DHT22;3254;47.372;8.512;2023-11-21T02:04:42;8.70;1.00
6443;DHT22;3254;47.372;8.512;2023-11-21T02:07:07;8.70;1.00
6443;DHT22;3254;47.372;8.512;2023-11-21T02:09:33;8.70;1.00
6443;DHT22;3254;47.372;8.512;2023-11-21T02:12:00;8.70;1.00
6443;DHT22;3254;47.372;8.512;2023-11-21T02:14:26;8.70;1.00
6443;DHT22;3254;47.372;8.512;2023-11-21T02:16:54;8.70;1.00
6443;DHT22;3254;47.372;8.512;2023-11-21T02:19:21;8.80;1.00
6443;DHT22;3254;47.372;8.512;2023-11-21T02:21:53;8.70;1.00
6443;DHT22;3254;47.372;8.512;2023-11-21T02:24:20;8.50;1.00
6443;DHT22;3254;47.372;8.512;2023-11-21T02:26:47;7.80;1.00
6443;DHT22;3254;47.372;8.512;2023-11-21T02:29:12;7.50;1.00
6443;DHT22;3254;47.372;8.512;2023-11-21T02:31:39;7.30;1.00
6443;DHT22;3254;47.372;8.512;2023-11-21T02:34:14;7.00;1.00
6443;DHT22;3254;47.372;8.512;2023-11-21T02:36:40;6.80;15.80
6443;DHT22;3254;47.372;8.512;2023-11-21T02:39:05;6.70;49.00
6443;DHT22;3254;47.372;8.512;2023-11-21T02:41:32;6.70;76.30
6443;DHT22;3254;47.372;8.512;2023-11-21T02:44:00;6.60;93.30
6443;DHT22;3254;47.372;8.512;2023-11-21T02:46:25;6.60;99.90
6443;DHT22;3254;47.372;8.512;2023-11-21T02:48:51;6.60;99.90
6443;DHT22;3254;47.372;8.512;2023-11-21T02:51:19;6.60;99.90
6443;DHT22;3254;47.372;8.512;2023-11-21T02:53:45;6.50;99.90
6443;DHT22;3254;47.372;8.512;2023-11-21T02:56:12;6.50;99.90
6443;DHT22;3254;47.372;8.512;2023-11-21T02:58:41;6.40;99.90
6443;DHT22;3254;47.372;8.512;2023-11-21T03:01:07;6.40;99.90
6443;DHT22;3254;47.372;8.512;2023-11-21T03:03:33;6.30;99.90
6443;DHT22;3254;47.372;8.512;2023-11-21T03:05:59;6.30;99.90
6443;DHT22;3254;47.372;8.512;2023-11-21T03:08:24;6.30;99.90
6443;DHT22;3254;47.372;8.512;2023-11-21T03:10:50;6.30;99.90
6443;DHT22;3254;47.372;8.512;2023-11-21T03:13:15;6.30;99.90
6443;DHT22;3254;47.372;8.512;2023-11-21T03:15:41;6.30;99.90
6443;DHT22;3254;47.372;8.512;2023-11-21T03:18:08;6.30;99.90
6443;DHT22;3254;47.372;8.512;2023-11-21T03:20:33;6.30;99.90
6443;DHT22;3254;47.372;8.512;2023-11-21T03:23:00;6.30;99.90
6443;DHT22;3254;47.372;8.512;2023-11-21T03:25:26;6.40;99.90
6443;DHT22;3254;47.372;8.512;2023-11-21T03:27:52;6.30;99.90
6443;DHT22;3254;47.372;8.512;2023-11-21T03:30:17;6.40;99.90
6443;DHT22;3254;47.372;8.512;2023-11-21T03:32:43;6.40;99.90
6443;DHT22;3254;47.372;8.512;2023-11-21T03:35:08;6.40;99.90
6443;DHT22;3254;47.372;8.512;2023-11-21T03:37:34;6.40;99.90
6443;DHT22;3254;47.372;8.512;2023-11-21T03:40:00;6.30;99.90
6443;DHT22;3254;47.372;8.512;2023-11-21T03:42:26;6.30;99.90
6443;DHT22;3254;47.372;8.512;2023-11-21T03:44:52;6.20;99.90
6443;DHT22;3254;47.372;8.512;2023-11-21T03:47:17;6.10;99.90
6443;DHT22;3254;47.372;8.512;2023-11-21T03:49:44;6.10;99.90
6443;DHT22;3254;47.372;8.512;2023-11-21T03:52:11;6.10;99.90
6443;DHT22;3254;47.372;8.512;2023-11-21T03:54:37;6.10;99.90
6443;DHT22;3254;47.372;8.512;2023-11-21T03:57:03;6.10;99.90
6443;DHT22;3254;47.372;8.512;2023-11-21T03:59:28;6.10;99.90
6443;DHT22;3254;47.372;8.512;2023-11-21T04:01:56;6.20;99.90
6443;DHT22;3254;47.372;8.512;2023-11-21T04:04:22;6.10;99.90
6443;DHT22;3254;47.372;8.512;2023-11-21T04:06:48;6.10;99.90
6443;DHT22;3254;47.372;8.512;2023-11-21T04:09:13;6.10;99.90
6443;DHT22;3254;47.372;8.512;2023-11-21T04:11:39;6.10;99.90
6443;DHT22;3254;47.372;8.512;2023-11-21T04:14:04;6.10;99.90
6443;DHT22;3254;47.372;8.512;2023-11-21T04:16:30;6.10;99.90
6443;DHT22;3254;47.372;8.512;2023-11-21T04:18:55;5.90;99.90
6443;DHT22;3254;47.372;8.512;2023-11-21T04:21:22;5.90;99.90
6443;DHT22;3254;47.372;8.512;2023-11-21T04:23:49;5.90;99.90
6443;DHT22;3254;47.372;8.512;2023-11-21T04:26:15;6.00;99.90
6443;DHT22;3254;47.372;8.512;2023-11-21T04:28:40;5.90;99.90
6443;DHT22;3254;47.372;8.512;2023-11-21T04:31:06;6.00;99.90
6443;DHT22;3254;47.372;8.512;2023-11-21T04:33:32;5.90;99.90
6443;DHT22;3254;47.372;8.512;2023-11-21T04:35:58;5.90;99.90
6443;DHT22;3254;47.372;8.512;2023-11-21T04:38:23;6.00;99.90
6443;DHT22;3254;47.372;8.512;2023-11-21T04:40:49;6.00;99.90
6443;DHT22;3254;47.372;8.512;2023-11-21T04:43:14;5.90;99.90
6443;DHT22;3254;47.372;8.512;2023-11-21T04:45:40;6.00;99.90
6443;DHT22;3254;47.372;8.512;2023-11-21T04:48:07;5.90;99.90
6443;DHT22;3254;47.372;8.512;2023-11-21T04:50:33;6.00;99.90
6443;DHT22;3254;47.372;8.512;2023-11-21T04:52:59;6.00;99.90
6443;DHT22;3254;47.372;8.512;2023-11-21T04:55:25;6.00;99.90
6443;DHT22;3254;47.372;8.512;2023-11-21T04:57:53;6.00;99.90
6443;DHT22;3254;47.372;8.512;2023-11-21T05:00:19;6.00;99.90
6443;DHT22;3254;47.372;8.512;2023-11-21T05:02:46;6.00;99.90
6443;DHT22;3254;47.372;8.512;2023-11-21T05:05:12;6.00;99.90
6443;DHT22;3254;47.372;8.512;2023-11-21T05:07:40;6.00;99.90
6443;DHT22;3254;47.372;8.512;2023-11-21T05:10:06;5.90;99.90
6443;DHT22;3254;47.372;8.512;2023-11-21T05:12:37;5.90;99.90
6443;DHT22;3254;47.372;8.512;2023-11-21T05:15:07;6.00;99.90
6443;DHT22;3254;47.372;8.512;2023-11-21T05:17:35;5.90;99.90
6443;DHT22;3254;47.372;8.512;2023-11-21T05:20:00;5.90;99.90
6443;DHT22;3254;47.372;8.512;2023-11-21T05:22:29;5.90;99.90
6443;DHT22;3254;47.372;8.512;2023-11-21T05:24:54;5.90;99.90
6443;DHT22;3254;47.372;8.512;2023-11-21T05:27:20;5.90;99.90
6443;DHT22;3254;47.372;8.512;2023-11-21T05:29:45;5.90;99.90
6443;DHT22;3254;47.372;8.512;2023-11-21T05:32:11;5.80;99.90
6443;DHT22;3254;47.372;8.512;2023-11-21T05:34:37;5.80;99.90
6443;DHT22;3254;47.372;8.512;2023-11-21T05:37:02;5.80;99.90
6443;DHT22;3254;47.372;8.512;2023-11-21T05:39:28;5.80;99.90
6443;DHT22;3254;47.372;8.512;2023-11-21T05:41:53;5.80;99.90
6443;DHT22;3254;47.372;8.512;2023-11-21T05:44:19;5.80;99.90
6443;DHT22;3254;47.372;8.512;2023-11-21T05:46:44;5.80;99.90
6443;DHT22;3254;47.372;8.512;2023-11-21T05:49:10;5.80;99.90
6443;DHT22;3254;47.372;8.512;2023-11-21T05:51:37;5.80;99.90
6443;DHT22;3254;47.372;8.512;2023-11-21T05:54:03;5.90;99.90
6443;DHT22;3254;47.372;8.512;2023-11-21T05:56:29;5.90;99.90
6443;DHT22;3254;47.372;8.512;2023-11-21T05:58:54;5.90;99.90
6443;DHT22;3254;47.372;8.512;2023-11-21T06:01:20;5.90;99.90
6443;DHT22;3254;47.372;8.512;2023-11-21T06:03:45;6.00;99.90
6443;DHT22;3254;47.372;8.512;2023-11-21T06:06:11;6.00;99.90
6443;DHT22;3254;47.372;8.512;2023-11-21T06:08:36;6.00;99.90
6443;DHT22;3254;47.372;8.512;2023-11-21T06:11:02;5.90;99.90
6443;DHT22;3254;47.372;8.512;2023-11-21T06:13:28;6.00;99.90
6443;DHT22;3254;47.372;8.512;2023-11-21T06:15:53;6.00;99.90
6443;DHT22;3254;47.372;8.512;2023-11-21T06:18:20;6.00;99.90
6443;DHT22;3254;47.372;8.512;2023-11-21T06:20:46;6.00;99.90
6443;DHT22;3254;47.372;8.512;2023-11-21T06:23:12;6.10;99.90
6443;DHT22;3254;47.372;8.512;2023-11-21T06:25:37;6.10;99.90
6443;DHT22;3254;47.372;8.512;2023-11-21T06:28:03;6.10;99.90
6443;DHT22;3254;47.372;8.512;2023-11-21T06:30:29;6.10;99.90
6443;DHT22;3254;47.372;8.512;2023-11-21T06:32:54;6.20;99.90
6443;DHT22;3254;47.372;8.512;2023-11-21T06:35:21;6.20;99.90
6443;DHT22;3254;47.372;8.512;2023-11-21T06:37:47;6.20;99.90
6443;DHT22;3254;47.372;8.512;2023-11-21T06:40:17;6.10;99.90
6443;DHT22;3254;47.372;8.512;2023-11-21T06:42:43;6.20;99.90
6443;DHT22;3254;47.372;8.512;2023-11-21T06:45:10;6.10;99.90
6443;DHT22;3254;47.372;8.512;2023-11-21T06:47:36;6.20;99.90
6443;DHT22;3254;47.372;8.512;2023-11-21T06:50:03;6.20;99.90
6443;DHT22;3254;47.372;8.512;2023-11-21T06:52:29;6.20;99.90
6443;DHT22;3254;47.372;8.512;2023-11-21T06:54:54;6.20;99.90
6443;DHT22;3254;47.372;8.512;2023-11-21T06:57:20;6.10;99.90
6443;DHT22;3254;47.372;8.512;2023-11-21T06:59:48;6.10;99.90
6443;DHT22;3254;47.372;8.512;2023-11-21T07:02:13;6.10;99.90
6443;DHT22;3254;47.372;8.512;2023-11-21T07:04:39;6.10;99.90
6443;DHT22;3254;47.372;8.512;2023-11-21T07:07:06;6.00;99.90
6443;DHT22;3254;47.372;8.512;2023-11-21T07:09:32;6.10;99.90
6443;DHT22;3254;47.372;8.512;2023-11-21T07:11:58;6.00;99.90
6443;DHT22;3254;47.372;8.512;2023-11-21T07:14:23;6.00;99.90
6443;DHT22;3254;47.372;8.512;2023-11-21T07:16:49;6.00;99.90
6443;DHT22;3254;47.372;8.512;2023-11-21T07:19:14;6.10;99.90
6443;DHT22;3254;47.372;8.512;2023-11-21T07:21:40;6.10;99.90
6443;DHT22;3254;47.372;8.512;2023-11-21T07:24:07;6.20;99.90
6443;DHT22;3254;47.372;8.512;2023-11-21T07:26:34;6.20;99.90
6443;DHT22;3254;47.372;8.512;2023-11-21T07:29:03;6.30;99.90
6443;DHT22;3254;47.372;8.512;2023-11-21T07:31:29;6.30;99.90
6443;DHT22;3254;47.372;8.512;2023-11-21T07:33:55;6.30;99.90
6443;DHT22;3254;47.372;8.512;2023-11-21T07:36:23;6.40;99.30
6443;DHT22;3254;47.372;8.512;2023-11-21T07:38:49;6.40;96.20
6443;DHT22;3254;47.372;8.512;2023-11-21T07:41:15;6.40;98.80
6443;DHT22;3254;47.372;8.512;2023-11-21T07:43:44;6.40;99.90
6443;DHT22;3254;47.372;8.512;2023-11-21T07:46:10;6.40;97.30
6443;DHT22;3254;47.372;8.512;2023-11-21T07:48:38;6.40;98.40
6443;DHT22;3254;47.372;8.512;2023-11-21T07:51:04;6.40;99.80
6443;DHT22;3254;47.372;8.512;2023-11-21T07:53:30;6.50;97.60
6443;DHT22;3254;47.372;8.512;2023-11-21T07:55:56;6.50;99.90
6443;DHT22;3254;47.372;8.512;2023-11-21T07:58:21;6.60;97.40
6443;DHT22;3254;47.372;8.512;2023-11-21T08:00:47;6.60;93.60
6443;DHT22;3254;47.372;8.512;2023-11-21T08:03:16;6.60;96.10
6443;DHT22;3254;47.372;8.512;2023-11-21T08:05:42;6.60;96.60
6443;DHT22;3254;47.372;8.512;2023-11-21T08:08:08;6.70;95.90
6443;DHT22;3254;47.372;8.512;2023-11-21T08:10:34;6.80;92.10
6443;DHT22;3254;47.372;8.512;2023-11-21T08:13:01;6.80;92.80
6443;DHT22;3254;47.372;8.512;2023-11-21T08:15:27;7.00;95.40
6443;DHT22;3254;47.372;8.512;2023-11-21T08:17:52;7.10;87.50
6443;DHT22;3254;47.372;8.512;2023-11-21T08:20:18;7.30;85.90
6443;DHT22;3254;47.372;8.512;2023-11-21T08:22:44;7.40;88.40
6443;DHT22;3254;47.372;8.512;2023-11-21T08:25:09;7.40;78.60
6443;DHT22;3254;47.372;8.512;2023-11-21T08:27:35;7.50;70.70
6443;DHT22;3254;47.372;8.512;2023-11-21T08:30:02;7.60;69.40
6443;DHT22;3254;47.372;8.512;2023-11-21T08:32:28;7.70;56.20
6443;DHT22;3254;47.372;8.512;2023-11-21T08:34:55;7.80;50.20
6443;DHT22;3254;47.372;8.512;2023-11-21T08:37:21;7.80;52.70
6443;DHT22;3254;47.372;8.512;2023-11-21T08:39:47;7.80;47.70
6443;DHT22;3254;47.372;8.512;2023-11-21T08:42:14;7.60;48.80
6443;DHT22;3254;47.372;8.512;2023-11-21T08:44:40;7.40;59.20
6443;DHT22;3254;47.372;8.512;2023-11-21T08:47:06;7.40;60.10
6443;DHT22;3254;47.372;8.512;2023-11-21T08:49:31;7.40;61.10
6443;DHT22;3254;47.372;8.512;2023-11-21T08:51:58;7.40;64.20
6443;DHT22;3254;47.372;8.512;2023-11-21T08:54:25;7.50;67.50
6443;DHT22;3254;47.372;8.512;2023-11-21T08:56:52;7.60;55.40
6443;DHT22;3254;47.372;8.512;2023-11-21T08:59:17;7.80;50.30
6443;DHT22;3254;47.372;8.512;2023-11-21T09:01:43;7.90;50.70
6443;DHT22;3254;47.372;8.512;2023-11-21T09:04:09;7.90;27.10
6443;DHT22;3254;47.372;8.512;2023-11-21T09:06:34;8.00;43.80
6443;DHT22;3254;47.372;8.512;2023-11-21T09:09:00;8.10;33.70
6443;DHT22;3254;47.372;8.512;2023-11-21T09:11:26;8.20;27.20
6443;DHT22;3254;47.372;8.512;2023-11-21T09:13:56;8.20;27.10
6443;DHT22;3254;47.372;8.512;2023-11-21T09:16:23;8.20;25.10
6443;DHT22;3254;47.372;8.512;2023-11-21T09:18:48;8.20;22.70
6443;DHT22;3254;47.372;8.512;2023-11-21T09:21:14;8.20;22.20
6443;DHT22;3254;47.372;8.512;2023-11-21T09:23:39;8.20;17.00
6443;DHT22;3254;47.372;8.512;2023-11-21T09:26:05;8.10;17.20
6443;DHT22;3254;47.372;8.512;2023-11-21T09:28:31;8.00;19.60
6443;DHT22;3254;47.372;8.512;2023-11-21T09:30:56;8.00;22.80
6443;DHT22;3254;47.372;8.512;2023-11-21T09:33:22;8.00;20.30
6443;DHT22;3254;47.372;8.512;2023-11-21T09:35:50;7.90;21.90
6443;DHT22;3254;47.372;8.512;2023-11-21T09:38:16;7.90;20.50
6443;DHT22;3254;47.372;8.512;2023-11-21T09:40:42;7.80;24.10
6443;DHT22;3254;47.372;8.512;2023-11-21T09:43:17;7.80;20.80
6443;DHT22;3254;47.372;8.512;2023-11-21T09:45:46;7.80;23.80
6443;DHT22;3254;47.372;8.512;2023-11-21T09:48:13;7.80;22.40
6443;DHT22;3254;47.372;8.512;2023-11-21T09:50:41;7.90;29.00
6443;DHT22;3254;47.372;8.512;2023-11-21T09:53:17;7.80;26.80
6443;DHT22;3254;47.372;8.512;2023-11-21T09:55:44;7.80;35.70
6443;DHT22;3254;47.372;8.512;2023-11-21T09:58:10;7.80;39.60
6443;DHT22;3254;47.372;8.512;2023-11-21T10:00:44;7.80;35.90
6443;DHT22;3254;47.372;8.512;2023-11-21T10:03:10;7.90;40.80
6443;DHT22;3254;47.372;8.512;2023-11-21T10:05:37;8.00;47.10
6443;DHT22;3254;47.372;8.512;2023-11-21T10:08:10;8.20;35.10
6443;DHT22;3254;47.372;8.512;2023-11-21T10:10:37;8.30;29.00
6443;DHT22;3254;47.372;8.512;2023-11-21T10:13:04;8.60;29.70
6443;DHT22;3254;47.372;8.512;2023-11-21T10:15:34;8.90;19.80
6443;DHT22;3254;47.372;8.512;2023-11-21T10:18:05;8.90;24.00
6443;DHT22;3254;47.372;8.512;2023-11-21T10:20:32;9.00;18.50
6443;DHT22;3254;47.372;8.512;2023-11-21T10:23:03;9.00;12.30
6443;DHT22;3254;47.372;8.512;2023-11-21T10:25:30;9.10;19.70
6443;DHT22;3254;47.372;8.512;2023-11-21T10:27:59;9.20;16.30
6443;DHT22;3254;47.372;8.512;2023-11-21T10:30:38;9.10;7.20
6443;DHT22;3254;47.372;8.512;2023-11-21T10:33:05;9.10;12.00
6443;DHT22;3254;47.372;8.512;2023-11-21T10:35:48;9.20;12.80
6443;DHT22;3254;47.372;8.512;2023-11-21T10:38:19;9.40;7.40
6443;DHT22;3254;47.372;8.512;2023-11-21T10:40:48;9.50;5.80
6443;DHT22;3254;47.372;8.512;2023-11-21T10:43:14;9.70;1.70
6443;DHT22;3254;47.372;8.512;2023-11-21T10:45:41;9.70;1.00
6443;DHT22;3254;47.372;8.512;2023-11-21T10:48:09;9.70;1.00
6443;DHT22;3254;47.372;8.512;2023-11-21T10:50:36;9.60;1.00
6443;DHT22;3254;47.372;8.512;2023-11-21T10:53:03;9.60;1.00
6443;DHT22;3254;47.372;8.512;2023-11-21T10:55:30;9.80;1.00
6443;DHT22;3254;47.372;8.512;2023-11-21T10:57:58;9.70;1.00
6443;DHT22;3254;47.372;8.512;2023-11-21T11:00:26;9.80;1.00
6443;DHT22;3254;47.372;8.512;2023-11-21T11:02:53;9.80;1.00
6443;DHT22;3254;47.372;8.512;2023-11-21T11:05:23;10.00;1.00
6443;DHT22;3254;47.372;8.512;2023-11-21T11:07:59;10.00;1.00
6443;DHT22;3254;47.372;8.512;2023-11-21T11:10:27;9.90;1.00
6443;DHT22;3254;47.372;8.512;2023-11-21T11:12:55;10.00;1.00
6443;DHT22;3254;47.372;8.512;2023-11-21T11:15:21;10.20;1.00
6443;DHT22;3254;47.372;8.512;2023-11-21T11:17:48;10.70;1.00
6443;DHT22;3254;47.372;8.512;2023-11-21T11:20:15;11.30;1.00
6443;DHT22;3254;47.372;8.512;2023-11-21T11:22:59;12.10;1.00
6443;DHT22;3254;47.372;8.512;2023-11-21T11:28:07;13.00;1.00
6443;DHT22;3254;47.372;8.512;2023-11-21T11:30:39;12.90;1.00
6443;DHT22;3254;47.372;8.512;2023-11-21T11:38:31;12.30;1.00
6443;DHT22;3254;47.372;8.512;2023-11-21T11:41:03;12.30;1.00
6443;DHT22;3254;47.372;8.512;2023-11-21T11:43:32;12.40;1.00
6443;DHT22;3254;47.372;8.512;2023-11-21T11:46:03;12.50;1.00
6443;DHT22;3254;47.372;8.512;2023-11-21T11:48:29;12.50;1.00
6443;DHT22;3254;47.372;8.512;2023-11-21T11:51:05;12.40;1.00
6443;DHT22;3254;47.372;8.512;2023-11-21T11:53:36;12.60;1.00
6443;DHT22;3254;47.372;8.512;2023-11-21T11:56:28;12.20;1.00
6443;DHT22;3254;47.372;8.512;2023-11-21T11:58:57;11.70;1.00
6443;DHT22;3254;47.372;8.512;2023-11-21T12:01:25;11.50;1.00
6443;DHT22;3254;47.372;8.512;2023-11-21T12:07:00;11.40;1.00
6443;DHT22;3254;47.372;8.512;2023-11-21T12:09:28;11.60;1.00
6443;DHT22;3254;47.372;8.512;2023-11-21T12:11:54;11.70;1.00
6443;DHT22;3254;47.372;8.512;2023-11-21T12:14:22;11.90;1.00
6443;DHT22;3254;47.372;8.512;2023-11-21T12:16:48;12.10;1.00
6443;DHT22;3254;47.372;8.512;2023-11-21T12:19:14;11.90;1.00
6443;DHT22;3254;47.372;8.512;2023-11-21T12:21:40;12.20;1.00
6443;DHT22;3254;47.372;8.512;2023-11-21T12:24:14;12.30;1.00
6443;DHT22;3254;47.372;8.512;2023-11-21T12:26:42;12.10;1.00
6443;DHT22;3254;47.372;8.512;2023-11-21T12:29:08;11.90;1.00
6443;DHT22;3254;47.372;8.512;2023-11-21T12:31:34;11.80;1.00
6443;DHT22;3254;47.372;8.512;2023-11-21T12:34:00;11.70;1.00
6443;DHT22;3254;47.372;8.512;2023-11-21T12:36:26;11.70;1.00
6443;DHT22;3254;47.372;8.512;2023-11-21T12:38:51;11.40;1.00
6443;DHT22;3254;47.372;8.512;2023-11-21T12:41:17;11.30;1.00
6443;DHT22;3254;47.372;8.512;2023-11-21T12:43:43;11.40;1.00
6443;DHT22;3254;47.372;8.512;2023-11-21T12:46:10;11.10;1.00
6443;DHT22;3254;47.372;8.512;2023-11-21T12:48:41;11.00;1.00
6443;DHT22;3254;47.372;8.512;2023-11-21T12:51:10;11.00;1.00
6443;DHT22;3254;47.372;8.512;2023-11-21T12:53:44;11.00;1.00
6443;DHT22;3254;47.372;8.512;2023-11-21T12:56:11;10.90;1.00
6443;DHT22;3254;47.372;8.512;2023-11-21T12:58:38;10.80;1.00
6443;DHT22;3254;47.372;8.512;2023-11-21T13:01:08;10.80;1.00
6443;DHT22;3254;47.372;8.512;2023-11-21T13:03:47;10.90;1.00
6443;DHT22;3254;47.372;8.512;2023-11-21T13:06:17;11.00;1.00
6443;DHT22;3254;47.372;8.512;2023-11-21T13:08:44;11.10;1.00
6443;DHT22;3254;47.372;8.512;2023-11-21T13:11:11;11.10;1.00
6443;DHT22;3254;47.372;8.512;2023-11-21T13:13:36;11.00;1.00
6443;DHT22;3254;47.372;8.512;2023-11-21T13:16:05;10.90;1.00
6443;DHT22;3254;47.372;8.512;2023-11-21T13:18:33;10.90;1.00
6443;DHT22;3254;47.372;8.512;2023-11-21T13:21:04;10.80;1.00
6443;DHT22;3254;47.372;8.512;2023-11-21T13:23:35;10.70;1.00
6443;DHT22;3254;47.372;8.512;2023-11-21T13:26:02;10.80;1.00
6443;DHT22;3254;47.372;8.512;2023-11-21T13:28:32;10.70;1.00
6443;DHT22;3254;47.372;8.512;2023-11-21T13:31:02;10.40;1.00
6443;DHT22;3254;47.372;8.512;2023-11-21T13:33:35;10.20;1.00
6443;DHT22;3254;47.372;8.512;2023-11-21T13:36:04;10.10;1.00
6443;DHT22;3254;47.372;8.512;2023-11-21T13:38:33;10.00;1.00
6443;DHT22;3254;47.372;8.512;2023-11-21T13:41:00;10.00;1.00
6443;DHT22;3254;47.372;8.512;2023-11-21T13:43:26;9.90;1.00
6443;DHT22;3254;47.372;8.512;2023-11-21T13:45:54;10.00;1.00
6443;DHT22;3254;47.372;8.512;2023-11-21T13:48:38;10.00;1.00
6443;DHT22;3254;47.372;8.512;2023-11-21T13:51:08;9.90;1.00
6443;DHT22;3254;47.372;8.512;2023-11-21T13:53:41;9.80;1.00
6443;DHT22;3254;47.372;8.512;2023-11-21T13:56:08;9.70;1.00
6443;DHT22;3254;47.372;8.512;2023-11-21T13:58:34;9.50;1.00
6443;DHT22;3254;47.372;8.512;2023-11-21T14:01:32;9.50;1.00
6443;DHT22;3254;47.372;8.512;2023-11-21T14:04:19;9.40;1.00
6443;DHT22;3254;47.372;8.512;2023-11-21T14:06:56;9.30;1.00
6443;DHT22;3254;47.372;8.512;2023-11-21T14:09:24;9.30;1.00
6443;DHT22;3254;47.372;8.512;2023-11-21T14:11:55;9.20;1.00
6443;DHT22;3254;47.372;8.512;2023-11-21T14:14:24;9.20;1.00
6443;DHT22;3254;47.372;8.512;2023-11-21T14:16:53;8.80;1.00
6443;DHT22;3254;47.372;8.512;2023-11-21T14:19:19;8.40;32.80
6443;DHT22;3254;47.372;8.512;2023-11-21T14:21:46;8.20;65.40
6443;DHT22;3254;47.372;8.512;2023-11-21T14:24:14;8.10;90.80
6443;DHT22;3254;47.372;8.512;2023-11-21T14:26:47;8.00;94.20
6443;DHT22;3254;47.372;8.512;2023-11-21T14:29:16;8.00;97.10
6443;DHT22;3254;47.372;8.512;2023-11-21T14:31:48;7.80;97.10
6443;DHT22;3254;47.372;8.512;2023-11-21T14:34:14;7.70;99.90
6443;DHT22;3254;47.372;8.512;2023-11-21T14:36:40;7.70;99.90
6443;DHT22;3254;47.372;8.512;2023-11-21T14:39:06;7.80;99.90
6443;DHT22;3254;47.372;8.512;2023-11-21T14:41:46;7.80;99.90
6443;DHT22;3254;47.372;8.512;2023-11-21T14:44:11;7.70;99.40
6443;DHT22;3254;47.372;8.512;2023-11-21T14:46:38;7.70;98.90
6443;DHT22;3254;47.372;8.512;2023-11-21T14:49:05;7.70;93.40
6443;DHT22;3254;47.372;8.512;2023-11-21T14:52:00;7.70;89.80
6443;DHT22;3254;47.372;8.512;2023-11-21T14:54:30;7.70;91.00
6443;DHT22;3254;47.372;8.512;2023-11-21T14:57:09;7.70;96.70
6443;DHT22;3254;47.372;8.512;2023-11-21T14:59:48;7.80;95.70
6443;DHT22;3254;47.372;8.512;2023-11-21T15:02:18;7.70;94.60
6443;DHT22;3254;47.372;8.512;2023-11-21T15:04:48;7.70;94.00
6443;DHT22;3254;47.372;8.512;2023-11-21T15:07:17;7.70;93.50
6443;DHT22;3254;47.372;8.512;2023-11-21T15:09:43;7.80;93.30
6443;DHT22;3254;47.372;8.512;2023-11-21T15:12:10;7.70;92.40
6443;DHT22;3254;47.372;8.512;2023-11-21T15:14:47;7.80;93.60
6443;DHT22;3254;47.372;8.512;2023-11-21T15:17:15;7.80;89.30
6443;DHT22;3254;47.372;8.512;2023-11-21T15:19:48;7.80;83.80
6443;DHT22;3254;47.372;8.512;2023-11-21T15:22:13;7.80;86.80
6443;DHT22;3254;47.372;8.512;2023-11-21T15:24:41;7.80;85.10
6443;DHT22;3254;47.372;8.512;2023-11-21T15:27:09;7.80;76.40
6443;DHT22;3254;47.372;8.512;2023-11-21T15:29:34;7.80;72.70
6443;DHT22;3254;47.372;8.512;2023-11-21T15:32:00;7.80;65.80
6443;DHT22;3254;47.372;8.512;2023-11-21T15:34:26;7.80;69.40
6443;DHT22;3254;47.372;8.512;2023-11-21T15:36:53;7.80;69.00
6443;DHT22;3254;47.372;8.512;2023-11-21T15:39:20;7.80;64.10
6443;DHT22;3254;47.372;8.512;2023-11-21T15:41:57;7.80;60.10
6443;DHT22;3254;47.372;8.512;2023-11-21T15:44:24;7.80;59.10
6443;DHT22;3254;47.372;8.512;2023-11-21T15:46:52;7.70;57.10
6443;DHT22;3254;47.372;8.512;2023-11-21T15:49:17;7.70;57.40
6443;DHT22;3254;47.372;8.512;2023-11-21T15:51:46;7.70;61.00
6443;DHT22;3254;47.372;8.512;2023-11-21T15:54:21;7.70;62.90
6443;DHT22;3254;47.372;8.512;2023-11-21T15:56:50;7.70;60.10
6443;DHT22;3254;47.372;8.512;2023-11-21T15:59:17;7.60;57.80
6443;DHT22;3254;47.372;8.512;2023-11-21T16:01:43;7.60;60.20
6443;DHT22;3254;47.372;8.512;2023-11-21T16:04:13;7.60;62.50
6443;DHT22;3254;47.372;8.512;2023-11-21T16:06:45;7.60;63.90
6443;DHT22;3254;47.372;8.512;2023-11-21T16:09:12;7.60;67.50
6443;DHT22;3254;47.372;8.512;2023-11-21T16:11:57;7.50;68.10
6443;DHT22;3254;47.372;8.512;2023-11-21T16:14:27;7.50;70.40
6443;DHT22;3254;47.372;8.512;2023-11-21T16:16:59;7.50;66.90
6443;DHT22;3254;47.372;8.512;2023-11-21T16:19:25;7.50;65.00
6443;DHT22;3254;47.372;8.512;2023-11-21T16:21:50;7.50;67.70
6443;DHT22;3254;47.372;8.512;2023-11-21T16:24:16;7.50;69.10
6443;DHT22;3254;47.372;8.512;2023-11-21T16:26:43;7.50;69.50
6443;DHT22;3254;47.372;8.512;2023-11-21T16:29:08;7.60;70.50
6443;DHT22;3254;47.372;8.512;2023-11-21T16:31:34;7.70;67.40
6443;DHT22;3254;47.372;8.512;2023-11-21T16:33:59;7.70;64.70